Time;durP1;ratioP1;P1;durP2;ratioP2;P2;SDS_P1;SDS_P2;PMS_P1;PMS_P2;Temp;Humidity;BMP_temperature;BMP_pressure;BME280_temperature;BME280_humidity;BME280_pressure;Samples;Min_cycle;Max_cycle;Signal;HPM_P1;HPM_P2
2022/01/24 00:01:55;;;;;;;10.45;9.18;;;;;;;;;;4986837;28;20046;-91
2022/01/24 00:04:21;;;;;;;12.20;9.38;;;;;;;;;;4982180;28;20048;-90
2022/01/24 00:06:48;;;;;;;11.93;9.85;;;;;;;;;;5024736;28;20576;-92
2022/01/24 00:09:23;;;;;;;11.50;8.55;;;;;;;;;;4991473;28;20465;-88
2022/01/24 00:17:11;;;;;;;9.93;8.55;;;;;;;;;;5005376;28;20088;-91
2022/01/24 00:28:11;;;;;;;11.63;8.88;;;;;;;;;;5018317;28;20074;-88
2022/01/24 00:30:38;;;;;;;10.63;8.02;;;;;;;;;;5001074;28;20437;-87
2022/01/24 00:33:04;;;;;;;13.35;8.45;;;;;;;;;;4988071;28;20038;-91
2022/01/24 00:35:30;;;;;;;10.45;8.45;;;;;;;;;;4989688;28;20146;-90
2022/01/24 00:38:00;;;;;;;9.63;6.97;;;;;;;;;;5009788;28;20053;-90
2022/01/24 00:40:27;;;;;;;8.52;7.45;;;;;;;;;;5006553;28;20041;-88
2022/01/24 00:43:05;;;;;;;8.15;7.32;;;;;;;;;;4993030;28;20088;-91
2022/01/24 00:48:58;;;;;;;10.38;7.50;;;;;;;;;;5018036;28;20084;-91
2022/01/24 00:56:10;;;;;;;11.80;8.50;;;;;;;;;;5004461;28;20119;-88
2022/01/24 00:58:37;;;;;;;11.80;8.45;;;;;;;;;;4985684;28;20038;-89
2022/01/24 01:01:03;;;;;;;8.98;6.93;;;;;;;;;;4961031;28;20045;-86
2022/01/24 01:03:32;;;;;;;9.65;7.75;;;;;;;;;;4997526;28;20104;-89
2022/01/24 01:06:05;;;;;;;11.40;7.55;;;;;;;;;;5013646;28;20073;-88
2022/01/24 01:19:57;;;;;;;8.77;7.30;;;;;;;;;;5004475;28;20261;-87
2022/01/24 01:22:23;;;;;;;9.85;7.10;;;;;;;;;;5005121;28;20086;-88
2022/01/24 01:24:54;;;;;;;9.10;7.88;;;;;;;;;;5006056;28;20053;-87
2022/01/24 01:27:37;;;;;;;9.45;7.03;;;;;;;;;;5003992;28;20486;-88
2022/01/24 01:30:20;;;;;;;8.52;7.25;;;;;;;;;;4979778;28;20066;-87
2022/01/24 01:35:30;;;;;;;8.43;7.03;;;;;;;;;;4969432;28;20089;-89
2022/01/24 01:52:21;;;;;;;7.15;6.45;;;;;;;;;;4975669;28;20082;-89
2022/01/24 01:54:57;;;;;;;8.35;5.82;;;;;;;;;;4981364;28;20106;-91
2022/01/24 01:57:23;;;;;;;8.55;6.60;;;;;;;;;;4954242;28;20038;-90
2022/01/24 02:00:05;;;;;;;7.95;6.43;;;;;;;;;;4984854;28;20073;-89
2022/01/24 02:02:31;;;;;;;6.88;6.13;;;;;;;;;;4999601;28;20038;-90
2022/01/24 02:04:57;;;;;;;8.20;5.20;;;;;;;;;;4987676;28;20041;-86
2022/01/24 02:07:23;;;;;;;7.72;6.43;;;;;;;;;;4984050;28;20076;-89
2022/01/24 02:09:49;;;;;;;9.82;7.10;;;;;;;;;;5016296;28;20072;-89
2022/01/24 02:12:18;;;;;;;8.63;6.43;;;;;;;;;;5013367;28;20608;-90
2022/01/24 02:14:54;;;;;;;7.65;5.93;;;;;;;;;;5011898;28;20031;-91
2022/01/24 02:17:31;;;;;;;7.40;6.60;;;;;;;;;;5018585;28;20070;-91
2022/01/24 02:20:25;;;;;;;6.55;5.85;;;;;;;;;;5009891;28;20046;-91
2022/01/24 02:25:40;;;;;;;7.68;6.85;;;;;;;;;;5012306;28;20049;-91
2022/01/24 02:28:10;;;;;;;7.50;6.30;;;;;;;;;;5004986;28;20041;-90
2022/01/24 02:33:05;;;;;;;8.32;6.38;;;;;;;;;;5006253;28;20048;-92
2022/01/24 02:35:31;;;;;;;8.25;6.82;;;;;;;;;;5008186;28;20041;-89
2022/01/24 02:38:01;;;;;;;7.35;6.47;;;;;;;;;;5026443;28;20094;-91
2022/01/24 02:40:27;;;;;;;8.10;6.53;;;;;;;;;;5026973;28;20079;-91
2022/01/24 02:46:07;;;;;;;7.15;5.68;;;;;;;;;;5020342;28;20084;-90
2022/01/24 02:48:43;;;;;;;6.97;6.18;;;;;;;;;;5013886;28;20226;-91
2022/01/24 02:53:43;;;;;;;8.27;6.20;;;;;;;;;;5021200;28;20398;-92
2022/01/24 02:56:09;;;;;;;9.88;6.65;;;;;;;;;;5027670;28;20084;-89
2022/01/24 02:58:35;;;;;;;12.00;7.30;;;;;;;;;;5001260;28;20045;-89
2022/01/24 03:01:07;;;;;;;7.90;6.57;;;;;;;;;;5012725;28;20041;-88
2022/01/24 03:03:37;;;;;;;8.43;6.90;;;;;;;;;;4999403;28;20076;-90
2022/01/24 03:06:04;;;;;;;9.38;7.07;;;;;;;;;;4980835;28;20062;-90
2022/01/24 03:08:30;;;;;;;7.97;6.68;;;;;;;;;;5005143;28;20045;-90
2022/01/24 03:10:58;;;;;;;8.00;6.57;;;;;;;;;;5004842;28;20144;-91
2022/01/24 03:15:58;;;;;;;7.90;7.07;;;;;;;;;;5013922;28;20037;-88
2022/01/24 03:18:24;;;;;;;8.88;7.32;;;;;;;;;;5017658;28;20038;-89
2022/01/24 03:20:50;;;;;;;9.02;7.20;;;;;;;;;;4998942;28;20069;-89
2022/01/24 03:23:18;;;;;;;7.55;6.75;;;;;;;;;;5005525;28;20132;-85
2022/01/24 03:25:44;;;;;;;9.35;7.38;;;;;;;;;;5002408;28;20099;-90
2022/01/24 03:28:10;;;;;;;9.18;7.07;;;;;;;;;;5003794;28;20048;-86
2022/01/24 03:30:37;;;;;;;8.00;6.97;;;;;;;;;;4986841;28;20053;-88
2022/01/24 03:33:04;;;;;;;9.75;8.00;;;;;;;;;;4968450;28;20625;-91
2022/01/24 03:35:31;;;;;;;9.52;7.68;;;;;;;;;;4986532;28;20072;-90
2022/01/24 03:37:57;;;;;;;9.57;7.82;;;;;;;;;;4985009;28;20042;-89
2022/01/24 03:40:23;;;;;;;8.63;7.30;;;;;;;;;;5004986;28;20739;-86
2022/01/24 03:42:49;;;;;;;9.75;7.40;;;;;;;;;;4990808;28;20046;-87
2022/01/24 03:45:23;;;;;;;7.93;7.13;;;;;;;;;;4989447;28;20052;-88
2022/01/24 03:48:07;;;;;;;9.65;7.90;;;;;;;;;;5005263;28;20077;-87
2022/01/24 03:50:43;;;;;;;9.00;7.33;;;;;;;;;;4983002;28;20085;-88
2022/01/24 03:53:09;;;;;;;10.70;7.80;;;;;;;;;;4989327;28;20050;-86
2022/01/24 03:55:36;;;;;;;9.40;7.68;;;;;;;;;;4987490;28;20092;-83
2022/01/24 03:58:02;;;;;;;9.45;7.70;;;;;;;;;;4986977;28;20064;-88
2022/01/24 04:00:29;;;;;;;9.82;7.07;;;;;;;;;;5001110;28;20035;-86
2022/01/24 04:02:55;;;;;;;9.15;7.32;;;;;;;;;;4995885;28;20038;-88
2022/01/24 04:05:21;;;;;;;9.23;7.50;;;;;;;;;;5011407;28;20058;-86
2022/01/24 04:07:53;;;;;;;8.32;7.05;;;;;;;;;;5008460;28;20160;-86
2022/01/24 04:10:21;;;;;;;8.68;6.82;;;;;;;;;;4983709;28;20041;-86
2022/01/24 04:12:49;;;;;;;9.50;6.72;;;;;;;;;;5014591;28;20161;-86
2022/01/24 04:18:27;;;;;;;7.57;6.78;;;;;;;;;;5016936;28;20052;-88
2022/01/24 04:23:41;;;;;;;8.68;7.25;;;;;;;;;;5002136;28;20041;-86
2022/01/24 04:26:10;;;;;;;9.90;7.35;;;;;;;;;;5023802;28;20560;-89
2022/01/24 04:28:36;;;;;;;10.73;7.90;;;;;;;;;;4978929;28;20052;-89
2022/01/24 04:31:02;;;;;;;8.80;7.60;;;;;;;;;;5007208;28;20069;-88
2022/01/24 04:33:33;;;;;;;8.38;7.40;;;;;;;;;;5015020;28;20034;-84
2022/01/24 04:35:59;;;;;;;9.95;8.25;;;;;;;;;;5006559;28;20088;-90
2022/01/24 04:38:26;;;;;;;11.05;7.78;;;;;;;;;;5034436;28;20056;-89
2022/01/24 04:40:57;;;;;;;10.07;8.27;;;;;;;;;;5021124;28;20049;-89
2022/01/24 04:46:04;;;;;;;10.20;8.07;;;;;;;;;;5017599;28;20049;-84
2022/01/24 04:51:51;;;;;;;10.63;8.35;;;;;;;;;;5016571;28;20081;-87
2022/01/24 04:56:34;;;;;;;11.48;8.27;;;;;;;;;;5027772;28;20095;-89
2022/01/24 04:59:00;;;;;;;12.55;9.35;;;;;;;;;;4997820;28;20106;-93
2022/01/24 05:01:27;;;;;;;12.82;9.07;;;;;;;;;;5013366;28;20041;-87
2022/01/24 05:03:56;;;;;;;12.02;9.00;;;;;;;;;;5022269;28;20056;-85
2022/01/24 05:06:22;;;;;;;10.88;9.23;;;;;;;;;;4973292;28;20054;-89
2022/01/24 05:08:49;;;;;;;12.65;9.75;;;;;;;;;;5008411;28;20042;-90
2022/01/24 05:11:20;;;;;;;13.43;10.25;;;;;;;;;;5007082;28;20490;-89
2022/01/24 05:24:33;;;;;;;13.32;10.20;;;;;;;;;;5010362;28;20114;-92
2022/01/24 05:26:59;;;;;;;13.40;10.73;;;;;;;;;;5008291;28;20127;-88
2022/01/24 05:29:25;;;;;;;14.15;10.57;;;;;;;;;;4988873;28;20054;-87
2022/01/24 05:31:51;;;;;;;13.82;9.43;;;;;;;;;;4997720;28;20100;-90
2022/01/24 05:34:17;;;;;;;14.55;10.70;;;;;;;;;;4973861;28;20470;-91
2022/01/24 05:36:43;;;;;;;13.45;11.02;;;;;;;;;;5005645;28;20049;-85
2022/01/24 05:39:11;;;;;;;15.52;10.65;;;;;;;;;;4999767;28;20049;-86
2022/01/24 05:41:38;;;;;;;14.38;11.20;;;;;;;;;;4990249;28;20050;-86
2022/01/24 05:44:04;;;;;;;12.45;10.20;;;;;;;;;;4990347;28;20053;-90
2022/01/24 05:46:31;;;;;;;13.85;10.98;;;;;;;;;;4973228;28;20125;-91
2022/01/24 05:48:57;;;;;;;16.10;11.15;;;;;;;;;;4981009;28;20049;-88
2022/01/24 05:51:24;;;;;;;15.05;10.93;;;;;;;;;;4975860;28;20097;-86
2022/01/24 05:53:50;;;;;;;16.38;11.75;;;;;;;;;;4970525;28;20058;-83
2022/01/24 05:56:16;;;;;;;15.13;11.95;;;;;;;;;;4998151;28;20501;-84
2022/01/24 05:58:42;;;;;;;15.15;11.23;;;;;;;;;;5004152;28;20113;-87
2022/01/24 06:01:09;;;;;;;16.75;11.88;;;;;;;;;;4971762;28;20464;-86
2022/01/24 06:03:35;;;;;;;19.60;12.82;;;;;;;;;;5005369;28;20042;-88
2022/01/24 06:06:02;;;;;;;15.10;11.88;;;;;;;;;;5013108;28;20641;-86
2022/01/24 06:08:28;;;;;;;14.70;10.48;;;;;;;;;;4998289;28;20135;-89
2022/01/24 06:10:58;;;;;;;14.13;10.90;;;;;;;;;;5009831;28;20065;-87
2022/01/24 06:13:24;;;;;;;13.65;10.85;;;;;;;;;;5009527;28;20046;-86
2022/01/24 06:15:50;;;;;;;15.75;11.60;;;;;;;;;;5008620;28;20072;-84
2022/01/24 06:18:16;;;;;;;14.95;11.80;;;;;;;;;;4991689;28;20052;-85
2022/01/24 06:20:43;;;;;;;15.27;11.50;;;;;;;;;;5021215;28;20128;-86
2022/01/24 06:23:12;;;;;;;16.10;11.80;;;;;;;;;;4994405;28;20038;-84
2022/01/24 06:25:38;;;;;;;23.35;12.77;;;;;;;;;;5024605;28;20037;-84
2022/01/24 06:28:04;;;;;;;15.20;11.93;;;;;;;;;;5003690;28;20060;-86
2022/01/24 06:30:30;;;;;;;15.93;12.50;;;;;;;;;;5012752;28;20375;-87
2022/01/24 06:32:56;;;;;;;15.43;11.65;;;;;;;;;;5008193;28;20049;-86
2022/01/24 06:35:23;;;;;;;15.55;12.32;;;;;;;;;;4986409;28;20049;-86
2022/01/24 06:37:49;;;;;;;19.33;13.48;;;;;;;;;;5012844;28;20036;-87
2022/01/24 06:40:15;;;;;;;18.67;13.10;;;;;;;;;;4993558;28;20050;-86
2022/01/24 06:42:41;;;;;;;15.75;12.15;;;;;;;;;;5008663;28;20033;-88
2022/01/24 06:45:08;;;;;;;18.83;12.45;;;;;;;;;;5011035;28;20092;-88
2022/01/24 06:47:34;;;;;;;17.15;12.40;;;;;;;;;;5006008;28;20041;-88
2022/01/24 06:50:00;;;;;;;18.75;13.15;;;;;;;;;;4992365;28;20053;-89
2022/01/24 06:52:29;;;;;;;17.80;13.65;;;;;;;;;;4981202;28;20489;-88
2022/01/24 06:54:55;;;;;;;17.98;13.50;;;;;;;;;;4997392;28;20053;-87
2022/01/24 06:57:21;;;;;;;21.08;14.48;;;;;;;;;;4999611;28;20038;-87
2022/01/24 06:59:48;;;;;;;20.40;14.55;;;;;;;;;;5010085;28;20045;-90
2022/01/24 07:02:15;;;;;;;28.23;13.95;;;;;;;;;;4996680;28;20052;-88
2022/01/24 07:04:42;;;;;;;36.17;14.70;;;;;;;;;;5029844;28;20406;-87
2022/01/24 07:07:08;;;;;;;34.97;14.40;;;;;;;;;;5006509;28;20048;-88
2022/01/24 07:09:35;;;;;;;19.90;13.77;;;;;;;;;;4999404;28;20127;-88
2022/01/24 07:12:01;;;;;;;17.73;13.20;;;;;;;;;;4991015;28;20139;-89
2022/01/24 07:14:27;;;;;;;24.08;14.85;;;;;;;;;;5011656;28;20184;-86
2022/01/24 07:19:22;;;;;;;23.30;15.20;;;;;;;;;;4998511;28;20053;-86
2022/01/24 07:21:49;;;;;;;29.77;15.30;;;;;;;;;;4972780;28;20042;-89
2022/01/24 07:24:15;;;;;;;21.90;15.77;;;;;;;;;;4989368;28;20048;-88
2022/01/24 07:26:41;;;;;;;21.13;15.30;;;;;;;;;;5005105;28;20172;-88
2022/01/24 07:29:07;;;;;;;22.92;15.32;;;;;;;;;;5011345;28;20088;-86
2022/01/24 07:31:33;;;;;;;24.42;16.08;;;;;;;;;;5020844;28;20055;-88
2022/01/24 07:33:59;;;;;;;24.33;15.50;;;;;;;;;;4990274;28;20141;-86
2022/01/24 07:36:26;;;;;;;22.20;15.07;;;;;;;;;;5027277;28;20493;-88
2022/01/24 07:38:52;;;;;;;26.65;15.82;;;;;;;;;;5002162;28;20786;-88
2022/01/24 07:41:24;;;;;;;22.80;15.13;;;;;;;;;;5008408;28;20089;-86
2022/01/24 07:43:51;;;;;;;20.20;14.55;;;;;;;;;;4973464;28;20046;-89
2022/01/24 07:46:17;;;;;;;25.38;16.27;;;;;;;;;;4974003;28;20136;-87
2022/01/24 07:48:43;;;;;;;21.90;15.38;;;;;;;;;;5007702;28;20046;-87
2022/01/24 07:51:09;;;;;;;21.95;15.63;;;;;;;;;;5017882;28;20045;-87
2022/01/24 07:53:35;;;;;;;25.58;16.17;;;;;;;;;;5000540;28;20089;-87
2022/01/24 07:56:01;;;;;;;51.97;17.98;;;;;;;;;;4972797;28;20120;-88
2022/01/24 07:58:28;;;;;;;28.77;15.63;;;;;;;;;;5007833;28;20536;-88
2022/01/24 08:00:55;;;;;;;22.85;15.82;;;;;;;;;;4995262;28;20049;-89
2022/01/24 08:03:21;;;;;;;26.77;16.25;;;;;;;;;;4990072;28;20053;-88
2022/01/24 08:05:47;;;;;;;23.75;17.27;;;;;;;;;;5000737;28;20520;-88
2022/01/24 08:08:13;;;;;;;62.83;16.83;;;;;;;;;;5015853;28;20440;-87
2022/01/24 08:10:39;;;;;;;75.70;17.80;;;;;;;;;;5020806;28;20138;-87
2022/01/24 08:13:05;;;;;;;24.65;15.98;;;;;;;;;;5011628;28;20049;-88
2022/01/24 08:15:31;;;;;;;35.42;16.63;;;;;;;;;;4997285;28;20049;-84
2022/01/24 08:17:58;;;;;;;28.60;16.52;;;;;;;;;;5011183;28;20367;-87
2022/01/24 08:20:24;;;;;;;24.33;16.42;;;;;;;;;;4996915;28;20056;-85
2022/01/24 08:22:50;;;;;;;22.80;16.17;;;;;;;;;;5024582;28;20056;-89
2022/01/24 08:25:17;;;;;;;24.95;16.63;;;;;;;;;;5009867;28;20045;-87
2022/01/24 08:27:43;;;;;;;21.67;15.93;;;;;;;;;;5000077;28;20049;-86
2022/01/24 08:30:11;;;;;;;22.92;15.95;;;;;;;;;;4999374;28;20049;-88
2022/01/24 08:32:37;;;;;;;23.98;15.73;;;;;;;;;;5012560;28;20053;-87
2022/01/24 08:35:04;;;;;;;22.98;14.98;;;;;;;;;;4993389;28;20037;-88
2022/01/24 08:37:30;;;;;;;21.48;15.43;;;;;;;;;;4984906;28;20048;-87
2022/01/24 08:39:58;;;;;;;22.05;15.60;;;;;;;;;;5006357;28;20034;-88
2022/01/24 08:47:25;;;;;;;22.08;15.45;;;;;;;;;;4993408;28;20124;-87
2022/01/24 08:49:54;;;;;;;20.42;14.90;;;;;;;;;;5011472;28;20563;-88
2022/01/24 08:52:20;;;;;;;22.83;15.73;;;;;;;;;;4994326;28;20064;-89
2022/01/24 08:54:47;;;;;;;20.38;15.07;;;;;;;;;;5029581;28;20052;-87
2022/01/24 08:57:13;;;;;;;21.33;14.23;;;;;;;;;;5028132;28;20046;-86
2022/01/24 08:59:39;;;;;;;23.20;14.65;;;;;;;;;;5012148;28;20398;-88
2022/01/24 09:02:06;;;;;;;21.58;14.95;;;;;;;;;;5023443;28;20060;-88
2022/01/24 09:04:32;;;;;;;21.77;15.27;;;;;;;;;;5009913;28;20037;-87
2022/01/24 09:07:02;;;;;;;22.58;16.08;;;;;;;;;;5028610;28;20057;-85
2022/01/24 09:09:29;;;;;;;22.73;14.82;;;;;;;;;;5008907;28;20053;-87
2022/01/24 09:11:55;;;;;;;19.48;14.10;;;;;;;;;;4992569;28;20133;-87
2022/01/24 09:14:21;;;;;;;23.00;15.82;;;;;;;;;;5009917;28;20045;-88
2022/01/24 09:16:48;;;;;;;21.15;15.23;;;;;;;;;;5027274;28;20045;-86
2022/01/24 09:19:14;;;;;;;18.65;13.90;;;;;;;;;;5028403;28;20146;-88
2022/01/24 09:21:40;;;;;;;24.60;15.25;;;;;;;;;;5010560;28;20180;-88
2022/01/24 09:24:06;;;;;;;22.35;15.40;;;;;;;;;;4994826;28;20038;-88
2022/01/24 09:26:33;;;;;;;21.15;14.32;;;;;;;;;;4991045;28;20038;-85
2022/01/24 09:28:59;;;;;;;19.48;14.60;;;;;;;;;;5024735;28;20045;-83
2022/01/24 09:31:25;;;;;;;21.45;13.63;;;;;;;;;;5008071;28;20092;-86
2022/01/24 09:33:52;;;;;;;20.98;14.38;;;;;;;;;;5003040;28;20042;-82
2022/01/24 09:36:18;;;;;;;22.40;14.68;;;;;;;;;;5002065;28;20080;-84
2022/01/24 09:38:45;;;;;;;19.55;14.75;;;;;;;;;;5009253;28;20449;-85
2022/01/24 09:41:13;;;;;;;21.13;15.48;;;;;;;;;;5009356;28;20132;-85
2022/01/24 09:43:39;;;;;;;18.35;13.27;;;;;;;;;;5019698;28;20045;-83
2022/01/24 09:46:08;;;;;;;17.98;13.82;;;;;;;;;;5009525;28;20079;-84
2022/01/24 09:48:34;;;;;;;19.27;12.88;;;;;;;;;;5006789;28;20497;-86
2022/01/24 09:51:00;;;;;;;21.15;13.13;;;;;;;;;;5009133;28;20044;-82
2022/01/24 09:53:26;;;;;;;21.08;13.43;;;;;;;;;;5025529;28;20065;-84
2022/01/24 09:55:52;;;;;;;16.95;12.25;;;;;;;;;;5024865;28;20049;-85
2022/01/24 09:58:19;;;;;;;18.13;12.43;;;;;;;;;;4999125;28;20132;-85
2022/01/24 10:00:46;;;;;;;20.35;13.07;;;;;;;;;;5006937;28;20048;-85
2022/01/24 10:03:14;;;;;;;15.98;11.07;;;;;;;;;;5020854;28;20073;-83
2022/01/24 10:05:42;;;;;;;15.63;11.02;;;;;;;;;;5006510;28;20049;-85
2022/01/24 10:08:12;;;;;;;17.00;11.75;;;;;;;;;;4971426;28;20054;-86
2022/01/24 10:10:45;;;;;;;17.00;10.70;;;;;;;;;;4996919;28;20116;-86
2022/01/24 10:16:27;;;;;;;18.23;11.70;;;;;;;;;;5000672;28;20068;-83
2022/01/24 10:18:59;;;;;;;17.55;12.45;;;;;;;;;;4997622;28;20054;-84
2022/01/24 10:21:28;;;;;;;17.17;12.38;;;;;;;;;;5002353;28;20259;-83
2022/01/24 10:23:55;;;;;;;16.80;12.63;;;;;;;;;;4999399;28;20069;-86
2022/01/24 10:26:22;;;;;;;21.77;13.45;;;;;;;;;;4997123;28;20054;-85
2022/01/24 10:28:49;;;;;;;17.67;12.70;;;;;;;;;;4988964;28;20088;-84
2022/01/24 10:31:24;;;;;;;22.35;11.75;;;;;;;;;;5005429;28;20085;-87
2022/01/24 10:34:10;;;;;;;19.50;12.90;;;;;;;;;;4996681;28;20608;-83
2022/01/24 10:36:39;;;;;;;20.15;13.13;;;;;;;;;;4998659;28;20038;-85
2022/01/24 10:39:08;;;;;;;19.80;11.07;;;;;;;;;;5003475;28;20042;-86
2022/01/24 10:44:18;;;;;;;;;;;;;;;;;;4989346;28;20853;-87
2022/01/24 10:46:44;;;;;;;18.17;13.80;;;;;;;;;;4987923;28;19948;-86
2022/01/24 10:49:13;;;;;;;23.05;14.07;;;;;;;;;;5005224;28;20052;-85
2022/01/24 10:51:44;;;;;;;20.58;14.88;;;;;;;;;;5007542;28;20052;-82
2022/01/24 10:54:10;;;;;;;19.83;13.55;;;;;;;;;;5006054;28;20109;-86
2022/01/24 10:56:41;;;;;;;21.48;14.90;;;;;;;;;;5007165;28;20057;-86
2022/01/24 10:59:07;;;;;;;20.63;13.98;;;;;;;;;;4988108;28;20042;-86
2022/01/24 11:01:33;;;;;;;21.98;15.48;;;;;;;;;;5005540;28;20113;-85
2022/01/24 11:04:10;;;;;;;21.88;15.75;;;;;;;;;;5005006;28;20419;-85
2022/01/24 11:06:38;;;;;;;23.02;16.52;;;;;;;;;;5010808;28;20050;-86
2022/01/24 11:09:11;;;;;;;34.53;18.25;;;;;;;;;;5005888;28;20418;-88
2022/01/24 11:11:37;;;;;;;24.95;17.33;;;;;;;;;;4992234;28;20046;-86
2022/01/24 11:14:03;;;;;;;22.85;17.05;;;;;;;;;;4998639;28;20124;-86
2022/01/24 11:16:29;;;;;;;24.15;16.95;;;;;;;;;;5013780;28;20350;-87
2022/01/24 11:18:55;;;;;;;23.20;17.33;;;;;;;;;;5009014;28;20116;-85
2022/01/24 11:21:23;;;;;;;23.17;16.83;;;;;;;;;;4998223;28;20041;-85
2022/01/24 11:23:49;;;;;;;30.63;18.83;;;;;;;;;;5000472;28;20586;-85
2022/01/24 11:26:15;;;;;;;27.90;20.20;;;;;;;;;;5005251;28;20045;-86
2022/01/24 11:28:41;;;;;;;29.98;19.80;;;;;;;;;;4994313;28;20413;-84
2022/01/24 11:31:13;;;;;;;28.35;19.65;;;;;;;;;;5008306;28;20076;-85
2022/01/24 11:33:41;;;;;;;27.65;19.58;;;;;;;;;;5007594;28;20118;-85
2022/01/24 11:36:08;;;;;;;29.00;19.13;;;;;;;;;;5008064;28;20049;-85
2022/01/24 11:38:44;;;;;;;27.95;19.08;;;;;;;;;;5009259;28;20498;-84
2022/01/24 11:41:26;;;;;;;27.85;19.05;;;;;;;;;;5002534;28;20088;-85
2022/01/24 11:43:55;;;;;;;27.27;19.05;;;;;;;;;;4984818;28;20045;-84
2022/01/24 11:46:31;;;;;;;30.73;20.88;;;;;;;;;;4998408;28;20042;-87
2022/01/24 11:49:08;;;;;;;30.52;20.42;;;;;;;;;;5012220;28;20042;-86
2022/01/24 11:51:34;;;;;;;29.77;20.17;;;;;;;;;;5016764;28;20056;-88
2022/01/24 11:54:01;;;;;;;33.80;21.77;;;;;;;;;;4996965;28;20033;-83
2022/01/24 11:56:31;;;;;;;31.02;20.17;;;;;;;;;;5014221;28;20042;-86
2022/01/24 11:59:16;;;;;;;28.88;19.60;;;;;;;;;;4993534;28;20111;-87
2022/01/24 12:01:42;;;;;;;29.13;19.65;;;;;;;;;;5013168;28;20065;-83
2022/01/24 12:04:08;;;;;;;28.13;18.85;;;;;;;;;;5012891;28;20030;-86
2022/01/24 12:07:03;;;;;;;24.58;18.02;;;;;;;;;;5010783;28;20046;-84
2022/01/24 12:09:29;;;;;;;25.65;18.70;;;;;;;;;;5014931;28;20141;-82
2022/01/24 12:11:55;;;;;;;28.20;19.02;;;;;;;;;;4993317;28;20042;-87
2022/01/24 12:14:36;;;;;;;28.73;19.80;;;;;;;;;;5029286;28;20872;-83
2022/01/24 12:17:03;;;;;;;28.98;19.38;;;;;;;;;;5010009;28;20117;-87
2022/01/24 12:19:35;;;;;;;26.73;18.83;;;;;;;;;;5012976;28;20068;-88
2022/01/24 12:22:21;;;;;;;29.33;20.50;;;;;;;;;;5011749;28;20460;-86
2022/01/24 12:24:47;;;;;;;39.47;24.55;;;;;;;;;;5006744;28;20040;-85
2022/01/24 12:27:14;;;;;;;38.60;25.58;;;;;;;;;;5010144;28;20500;-85
2022/01/24 12:29:43;;;;;;;38.17;25.85;;;;;;;;;;4996582;28;20064;-86
2022/01/24 12:32:30;;;;;;;39.03;27.08;;;;;;;;;;5033107;28;20323;-83
2022/01/24 12:34:56;;;;;;;42.08;26.88;;;;;;;;;;4996598;28;20137;-85
2022/01/24 12:37:22;;;;;;;35.90;22.75;;;;;;;;;;5011990;28;20042;-85
2022/01/24 12:39:52;;;;;;;36.33;23.58;;;;;;;;;;4996266;28;20084;-85
2022/01/24 12:42:36;;;;;;;34.83;23.60;;;;;;;;;;5003270;28;20053;-85
2022/01/24 12:48:18;;;;;;;39.25;22.63;;;;;;;;;;5015367;28;20060;-84
2022/01/24 12:50:49;;;;;;;38.08;25.48;;;;;;;;;;5026389;28;20057;-86
2022/01/24 12:53:16;;;;;;;38.03;24.33;;;;;;;;;;5014448;28;20071;-86
2022/01/24 12:55:46;;;;;;;40.92;26.38;;;;;;;;;;5010212;28;20056;-83
2022/01/24 12:58:12;;;;;;;37.70;24.58;;;;;;;;;;5018519;28;20140;-84
2022/01/24 13:00:45;;;;;;;40.45;27.02;;;;;;;;;;4992368;28;20488;-84
2022/01/24 13:03:11;;;;;;;41.40;27.15;;;;;;;;;;5000237;28;20598;-85
2022/01/24 13:05:39;;;;;;;40.50;25.23;;;;;;;;;;5000042;28;20049;-86
2022/01/24 13:08:06;;;;;;;39.47;24.73;;;;;;;;;;4995797;28;20388;-82
2022/01/24 13:10:32;;;;;;;41.67;26.55;;;;;;;;;;5002888;28;20492;-85
2022/01/24 13:13:05;;;;;;;39.30;24.20;;;;;;;;;;5015745;28;20042;-86
2022/01/24 13:23:39;;;;;;;37.08;24.33;;;;;;;;;;5011158;28;20037;-83
2022/01/24 13:26:06;;;;;;;35.80;24.30;;;;;;;;;;5024679;28;20049;-85
2022/01/24 13:28:33;;;;;;;36.72;23.00;;;;;;;;;;5004635;28;20041;-87
2022/01/24 13:31:02;;;;;;;37.65;24.45;;;;;;;;;;5006268;28;20045;-87
2022/01/24 13:33:30;;;;;;;37.65;23.05;;;;;;;;;;5014588;28;20553;-86
2022/01/24 13:35:56;;;;;;;30.40;21.33;;;;;;;;;;4997911;28;20050;-82
2022/01/24 13:38:22;;;;;;;31.15;21.50;;;;;;;;;;5009820;28;20160;-84
2022/01/24 13:40:54;;;;;;;30.90;20.70;;;;;;;;;;5032763;28;20030;-86
2022/01/24 13:43:38;;;;;;;30.30;20.13;;;;;;;;;;5024537;28;20045;-86
2022/01/24 13:46:09;;;;;;;33.22;21.58;;;;;;;;;;5026494;28;20375;-86
2022/01/24 13:48:40;;;;;;;31.83;20.88;;;;;;;;;;5014207;28;20124;-87
2022/01/24 13:51:06;;;;;;;31.05;21.45;;;;;;;;;;5003326;28;20052;-81
2022/01/24 13:53:40;;;;;;;31.92;21.95;;;;;;;;;;4996132;28;20056;-87
2022/01/24 13:56:25;;;;;;;30.73;21.15;;;;;;;;;;4997077;28;20049;-85
2022/01/24 13:59:17;;;;;;;29.50;20.58;;;;;;;;;;5033150;28;20045;-84
2022/01/24 14:01:51;;;;;;;31.77;21.25;;;;;;;;;;5003895;28;20064;-88
2022/01/24 14:04:25;;;;;;;30.48;20.77;;;;;;;;;;5004028;28;20207;-87
2022/01/24 14:06:54;;;;;;;32.08;22.45;;;;;;;;;;4994471;28;20057;-85
2022/01/24 14:09:21;;;;;;;34.90;21.58;;;;;;;;;;4993830;28;20046;-85
2022/01/24 14:11:49;;;;;;;33.15;21.77;;;;;;;;;;5011231;28;20041;-86
2022/01/24 14:14:20;;;;;;;33.80;21.90;;;;;;;;;;5031621;28;20053;-88
2022/01/24 14:17:02;;;;;;;35.42;23.20;;;;;;;;;;5031947;28;20048;-85
2022/01/24 14:19:37;;;;;;;33.83;23.65;;;;;;;;;;5017323;28;20049;-86
2022/01/24 14:22:05;;;;;;;37.38;23.83;;;;;;;;;;5012595;28;20091;-84
2022/01/24 14:24:46;;;;;;;33.40;23.27;;;;;;;;;;5025318;28;20095;-84
2022/01/24 14:27:13;;;;;;;34.33;23.60;;;;;;;;;;5021757;28;20833;-87
2022/01/24 14:29:39;;;;;;;33.13;23.10;;;;;;;;;;5011215;28;20525;-84
2022/01/24 14:32:11;;;;;;;36.78;24.33;;;;;;;;;;5011143;28;20509;-85
2022/01/24 14:34:38;;;;;;;33.10;23.05;;;;;;;;;;5009461;28;20618;-84
2022/01/24 14:37:05;;;;;;;31.90;22.52;;;;;;;;;;5027546;28;20394;-86
2022/01/24 14:39:32;;;;;;;36.60;22.73;;;;;;;;;;5025766;28;20041;-86
2022/01/24 14:42:07;;;;;;;33.13;21.95;;;;;;;;;;5007411;28;20128;-84
2022/01/24 14:47:17;;;;;;;33.20;21.92;;;;;;;;;;4990602;28;20049;-84
2022/01/24 14:49:43;;;;;;;34.63;22.58;;;;;;;;;;5027003;28;20056;-85
2022/01/24 14:52:17;;;;;;;30.65;21.55;;;;;;;;;;5006865;28;20035;-85
2022/01/24 14:54:43;;;;;;;31.75;22.13;;;;;;;;;;5025635;28;20042;-86
2022/01/24 14:57:12;;;;;;;31.85;22.13;;;;;;;;;;5007879;28;20504;-87
2022/01/24 14:59:42;;;;;;;33.70;22.48;;;;;;;;;;4992636;28;20064;-85
2022/01/24 15:02:08;;;;;;;34.72;23.95;;;;;;;;;;4991297;28;20038;-87
2022/01/24 15:04:34;;;;;;;33.58;22.52;;;;;;;;;;4990894;28;20041;-91
2022/01/24 15:07:00;;;;;;;36.10;22.98;;;;;;;;;;5009904;28;20070;-84
2022/01/24 15:09:31;;;;;;;31.00;22.08;;;;;;;;;;4996066;28;20053;-86
2022/01/24 15:11:58;;;;;;;34.53;21.90;;;;;;;;;;5020214;28;20497;-83
2022/01/24 15:17:07;;;;;;;34.75;21.40;;;;;;;;;;4997226;28;20493;-87
2022/01/24 15:27:35;;;;;;;34.78;23.13;;;;;;;;;;4997830;28;20679;-83
2022/01/24 15:30:02;;;;;;;32.28;21.02;;;;;;;;;;4997815;28;20175;-84
2022/01/24 15:32:28;;;;;;;34.15;23.25;;;;;;;;;;5021072;28;20048;-89
2022/01/24 15:34:54;;;;;;;55.75;35.17;;;;;;;;;;4990261;28;20103;-85
2022/01/24 15:37:20;;;;;;;35.08;23.45;;;;;;;;;;5012007;28;20180;-89
2022/01/24 15:39:46;;;;;;;38.63;24.02;;;;;;;;;;4988474;28;20048;-87
2022/01/24 15:42:17;;;;;;;38.35;24.73;;;;;;;;;;4987368;28;20046;-89
2022/01/24 15:47:37;;;;;;;36.78;23.83;;;;;;;;;;5006987;28;20060;-87
2022/01/24 15:50:08;;;;;;;35.67;23.38;;;;;;;;;;4985810;28;20092;-84
2022/01/24 15:52:36;;;;;;;37.90;24.00;;;;;;;;;;5002066;28;20124;-86
2022/01/24 15:55:06;;;;;;;37.17;24.25;;;;;;;;;;5000374;28;20041;-84
2022/01/24 16:03:07;;;;;;;38.55;25.27;;;;;;;;;;5733250;23;20089;-87
2022/01/24 16:05:34;;;;;;;42.35;26.65;;;;;;;;;;5000836;28;20034;-84
2022/01/24 16:08:00;;;;;;;41.88;25.23;;;;;;;;;;4987961;28;20046;-86
2022/01/24 16:10:28;;;;;;;39.78;25.30;;;;;;;;;;4985456;28;20050;-86
2022/01/24 16:12:54;;;;;;;42.30;27.63;;;;;;;;;;5002935;28;20042;-86
2022/01/24 16:15:27;;;;;;;43.22;27.85;;;;;;;;;;4999538;28;20064;-87
2022/01/24 16:17:54;;;;;;;45.88;28.83;;;;;;;;;;5005006;28;20472;-82
2022/01/24 16:23:22;;;;;;;42.33;25.73;;;;;;;;;;4966334;28;20493;-83
2022/01/24 16:25:50;;;;;;;42.53;27.75;;;;;;;;;;4986551;28;20065;-84
2022/01/24 16:28:24;;;;;;;42.65;28.75;;;;;;;;;;4981312;28;20437;-87
2022/01/24 16:30:52;;;;;;;44.45;27.05;;;;;;;;;;4999603;28;20121;-88
2022/01/24 16:33:19;;;;;;;42.00;27.33;;;;;;;;;;4989239;28;20056;-85
2022/01/24 16:35:48;;;;;;;44.35;28.42;;;;;;;;;;4970692;28;20044;-84
2022/01/24 16:38:14;;;;;;;44.33;27.58;;;;;;;;;;4976567;28;20077;-87
2022/01/24 16:48:41;;;;;;;44.03;28.40;;;;;;;;;;5006469;28;20104;-81
2022/01/24 16:51:09;;;;;;;47.63;28.65;;;;;;;;;;4987030;28;20050;-89
2022/01/24 16:53:36;;;;;;;47.05;30.38;;;;;;;;;;5003910;28;20052;-82
2022/01/24 16:56:02;;;;;;;49.75;28.88;;;;;;;;;;4987588;28;20116;-83
2022/01/24 16:58:29;;;;;;;51.90;29.80;;;;;;;;;;4987095;28;20112;-88